createdAt,value
2018-09-02T00:00:06.937Z,4.50
2018-09-02T00:01:06.951Z,4.70
2018-09-02T00:02:06.961Z,6.00
2018-09-02T00:03:06.974Z,5.60
2018-09-02T00:04:06.988Z,6.10
2018-09-02T00:05:07.000Z,6.40
2018-09-02T00:06:07.016Z,5.80
2018-09-02T00:07:07.029Z,7.10
2018-09-02T00:08:07.044Z,6.30
2018-09-02T00:09:07.055Z,6.60
2018-09-02T00:10:07.068Z,7.00
2018-09-02T00:11:07.081Z,7.10
2018-09-02T00:12:07.093Z,5.00
2018-09-02T00:13:07.108Z,5.70
2018-09-02T00:14:07.118Z,5.20
2018-09-02T00:15:07.134Z,5.20
2018-09-02T00:16:07.148Z,5.50
2018-09-02T00:17:07.159Z,6.00
2018-09-02T00:18:07.172Z,6.30
2018-09-02T00:19:07.185Z,7.50
2018-09-02T00:20:07.198Z,7.40
2018-09-02T00:21:07.214Z,6.90
2018-09-02T00:22:07.225Z,6.50
2018-09-02T00:23:07.237Z,6.40
2018-09-02T00:24:07.252Z,6.70
2018-09-02T00:25:07.265Z,5.90
2018-09-02T00:26:07.278Z,6.10
2018-09-02T00:27:07.290Z,5.40
2018-09-02T00:28:07.305Z,5.70
2018-09-02T00:29:07.315Z,5.60
2018-09-02T00:30:07.328Z,5.50
2018-09-02T00:31:07.343Z,5.80
2018-09-02T00:32:07.353Z,5.50
2018-09-02T00:33:07.406Z,5.60
2018-09-02T00:34:07.383Z,4.50
2018-09-02T00:35:07.407Z,5.10
2018-09-02T00:36:07.411Z,4.70
2018-09-02T00:37:07.420Z,4.30
2018-09-02T00:38:07.436Z,3.80
2018-09-02T00:39:07.448Z,3.70
2018-09-02T00:40:07.465Z,3.80
2018-09-02T00:41:07.473Z,3.20
2018-09-02T00:42:07.489Z,3.40
2018-09-02T00:43:07.499Z,3.20
2018-09-02T00:44:07.514Z,2.90
2018-09-02T00:45:07.528Z,2.80
2018-09-02T00:46:07.539Z,2.80
2018-09-02T00:47:07.553Z,3.00
2018-09-02T00:48:07.569Z,4.70
2018-09-02T00:49:07.581Z,4.10
2018-09-02T00:50:07.594Z,5.10
2018-09-02T00:51:07.607Z,4.20
2018-09-02T00:52:07.622Z,4.40
2018-09-02T00:53:07.633Z,5.00
2018-09-02T00:54:07.647Z,5.40
2018-09-02T00:55:07.660Z,6.00
2018-09-02T00:56:07.675Z,5.20
2018-09-02T00:57:07.689Z,4.80
2018-09-02T00:58:07.701Z,4.60
2018-09-02T00:59:07.713Z,4.40
2018-09-02T01:00:07.728Z,4.20
2018-09-02T01:01:07.739Z,4.20
2018-09-02T01:02:07.753Z,3.80
2018-09-02T01:03:07.766Z,3.60
2018-09-02T01:04:07.779Z,3.50
2018-09-02T01:05:07.792Z,3.70
2018-09-02T01:06:07.805Z,3.90
2018-09-02T01:07:07.816Z,4.10
2018-09-02T01:08:07.836Z,3.40
2018-09-02T01:09:07.846Z,3.20
2018-09-02T01:10:07.857Z,3.50
2018-09-02T01:11:07.872Z,3.50
2018-09-02T01:12:07.885Z,3.50
2018-09-02T01:13:07.897Z,3.60
2018-09-02T01:14:07.911Z,2.80
2018-09-02T01:15:07.924Z,3.10
2018-09-02T01:16:07.937Z,3.40
2018-09-02T01:17:07.951Z,3.60
2018-09-02T01:18:07.963Z,3.00
2018-09-02T01:19:07.977Z,4.00
2018-09-02T01:20:07.998Z,3.90
2018-09-02T01:21:08.010Z,3.50
2018-09-02T01:22:08.018Z,3.70
2018-09-02T01:23:08.165Z,4.10
2018-09-02T01:24:08.043Z,4.30
2018-09-02T01:25:08.056Z,4.20
2018-09-02T01:26:08.072Z,4.90
2018-09-02T01:27:08.083Z,4.70
2018-09-02T01:28:08.096Z,4.70
2018-09-02T01:29:08.113Z,4.70
2018-09-02T01:30:08.125Z,4.90
2018-09-02T01:31:08.139Z,4.30
2018-09-02T01:32:08.154Z,4.80
2018-09-02T01:33:08.162Z,4.60
2018-09-02T01:34:08.175Z,4.60
2018-09-02T01:35:08.190Z,4.50
2018-09-02T01:36:08.205Z,4.80
2018-09-02T01:37:08.216Z,5.10
2018-09-02T01:38:08.227Z,4.90
2018-09-02T01:39:08.245Z,6.20
2018-09-02T01:40:08.255Z,7.50
2018-09-02T01:41:08.268Z,10.70
2018-09-02T01:42:08.281Z,8.20
2018-09-02T01:43:08.294Z,6.70
2018-09-02T01:44:08.308Z,5.10
2018-09-02T01:45:08.320Z,6.20
2018-09-02T01:46:08.338Z,4.30
2018-09-02T01:47:08.348Z,4.10
2018-09-02T01:48:08.361Z,4.80
2018-09-02T01:49:08.374Z,4.90
2018-09-02T01:50:08.388Z,4.80
2018-09-02T01:51:08.401Z,5.10
2018-09-02T01:52:08.413Z,6.40
2018-09-02T01:53:08.427Z,6.20
2018-09-02T01:54:08.439Z,4.80
2018-09-02T01:55:08.454Z,4.40
2018-09-02T01:56:08.468Z,5.20
2018-09-02T01:57:08.480Z,6.50
2018-09-02T01:58:08.493Z,4.90
2018-09-02T01:59:08.506Z,4.90
2018-09-02T02:00:08.520Z,4.40
2018-09-02T02:01:08.532Z,4.40
2018-09-02T02:02:08.544Z,4.60
2018-09-02T02:03:08.558Z,4.90
2018-09-02T02:04:08.574Z,5.30
2018-09-02T02:05:08.587Z,5.30
2018-09-02T02:06:08.596Z,5.20
2018-09-02T02:07:08.610Z,5.10
2018-09-02T02:08:08.623Z,5.10
2018-09-02T02:09:08.635Z,5.50
2018-09-02T02:10:08.653Z,5.40
2018-09-02T02:11:08.663Z,5.00
2018-09-02T02:12:08.677Z,5.20
2018-09-02T02:13:08.688Z,5.10
2018-09-02T02:14:08.700Z,6.10
2018-09-02T02:15:08.718Z,5.70
2018-09-02T02:16:08.728Z,7.20
2018-09-02T02:17:08.740Z,7.80
2018-09-02T02:18:08.756Z,11.70
2018-09-02T02:19:08.767Z,10.50
2018-09-02T02:20:08.782Z,8.90
2018-09-02T02:21:08.792Z,8.50
2018-09-02T02:22:08.805Z,8.40
2018-09-02T02:23:08.819Z,7.60
2018-09-02T02:24:08.832Z,7.40
2018-09-02T02:25:08.845Z,8.70
2018-09-02T02:26:08.858Z,8.50
2018-09-02T02:27:08.872Z,8.60
2018-09-02T02:28:08.884Z,7.60
2018-09-02T02:29:08.897Z,7.30
2018-09-02T02:30:08.909Z,7.40
2018-09-02T02:31:08.923Z,8.10
2018-09-02T02:32:08.936Z,24.70
2018-09-02T02:33:08.949Z,21.30
2018-09-02T02:34:08.961Z,10.90
2018-09-02T02:35:08.973Z,10.50
2018-09-02T02:36:08.988Z,8.70
2018-09-02T02:37:09.005Z,8.50
2018-09-02T02:38:09.011Z,7.70
2018-09-02T02:39:09.026Z,7.90
2018-09-02T02:40:09.036Z,7.80
2018-09-02T02:41:09.049Z,13.90
2018-09-02T02:42:09.063Z,14.60
2018-09-02T02:43:09.074Z,24.00
2018-09-02T02:44:09.087Z,17.80
2018-09-02T02:45:09.103Z,19.10
2018-09-02T02:46:09.114Z,10.90
2018-09-02T02:47:09.130Z,9.00
2018-09-02T02:48:09.140Z,8.10
2018-09-02T02:49:09.148Z,7.10
2018-09-02T02:50:09.164Z,6.60
2018-09-02T02:51:09.174Z,6.20
2018-09-02T02:52:09.189Z,5.90
2018-09-02T02:53:09.200Z,5.80
2018-09-02T02:54:09.213Z,5.00
2018-09-02T02:55:09.224Z,4.50
2018-09-02T02:56:09.238Z,4.50
2018-09-02T02:57:09.248Z,4.50
2018-09-02T02:58:09.261Z,4.10
2018-09-02T02:59:09.273Z,4.50
2018-09-02T03:00:09.291Z,4.30
2018-09-02T03:01:09.300Z,4.20
2018-09-02T03:02:09.311Z,3.80
2018-09-02T03:03:09.323Z,3.40
2018-09-02T03:04:09.337Z,3.90
2018-09-02T03:05:09.349Z,3.40
2018-09-02T03:06:09.363Z,3.80
2018-09-02T03:07:09.374Z,4.10
2018-09-02T03:08:09.386Z,3.40
2018-09-02T03:09:09.399Z,3.70
2018-09-02T03:10:09.412Z,3.90
2018-09-02T03:11:09.426Z,3.90
2018-09-02T03:12:09.438Z,4.20
2018-09-02T03:13:09.448Z,3.50
2018-09-02T03:14:09.460Z,3.90
2018-09-02T03:15:09.481Z,3.60
2018-09-02T03:16:09.487Z,4.50
2018-09-02T03:17:09.499Z,3.90
2018-09-02T03:18:09.512Z,4.30
2018-09-02T03:19:09.524Z,3.70
2018-09-02T03:20:09.537Z,4.30
2018-09-02T03:21:09.549Z,4.20
2018-09-02T03:22:09.573Z,4.10
2018-09-02T03:23:09.575Z,4.00
2018-09-02T03:24:09.590Z,4.00
2018-09-02T03:25:09.601Z,4.10
2018-09-02T03:26:09.613Z,4.30
2018-09-02T03:27:09.632Z,4.00
2018-09-02T03:28:09.640Z,4.20
2018-09-02T03:29:09.651Z,3.80
2018-09-02T03:30:09.663Z,4.20
2018-09-02T03:31:09.680Z,4.00
2018-09-02T03:32:09.690Z,4.20
2018-09-02T03:33:09.706Z,4.40
2018-09-02T03:34:09.716Z,3.80
2018-09-02T03:35:09.729Z,4.30
2018-09-02T03:36:09.743Z,4.40
2018-09-02T03:37:09.755Z,4.00
2018-09-02T03:38:09.772Z,3.90
2018-09-02T03:39:09.783Z,3.60
2018-09-02T03:40:09.796Z,3.60
2018-09-02T03:41:09.806Z,3.80
2018-09-02T03:42:09.820Z,3.70
2018-09-02T03:43:09.833Z,4.00
2018-09-02T03:44:09.847Z,3.60
2018-09-02T03:45:09.860Z,3.60
2018-09-02T03:46:09.874Z,3.50
2018-09-02T03:47:09.884Z,3.80
2018-09-02T03:48:09.897Z,3.60
2018-09-02T03:49:09.914Z,3.80
2018-09-02T03:50:09.925Z,3.10
2018-09-02T03:51:09.939Z,3.50
2018-09-02T03:52:09.949Z,3.70
2018-09-02T03:53:09.965Z,3.20
2018-09-02T03:54:09.976Z,3.80
2018-09-02T03:55:09.991Z,3.70
2018-09-02T03:56:10.004Z,3.20
2018-09-02T03:57:10.019Z,3.10
2018-09-02T03:58:10.028Z,3.50
2018-09-02T03:59:10.042Z,3.60
2018-09-02T04:00:10.059Z,3.30
2018-09-02T04:01:10.070Z,3.10
2018-09-02T04:02:10.081Z,3.40
2018-09-02T04:03:10.094Z,3.20
2018-09-02T04:04:10.110Z,3.10
2018-09-02T04:05:10.123Z,3.30
2018-09-02T04:06:10.137Z,2.90
2018-09-02T04:07:10.148Z,3.00
2018-09-02T04:08:10.160Z,3.40
2018-09-02T04:09:10.173Z,3.10
2018-09-02T04:10:10.187Z,2.60
2018-09-02T04:11:10.259Z,3.00
2018-09-02T04:12:10.249Z,2.40
2018-09-02T04:13:10.225Z,2.90
2018-09-02T04:14:10.238Z,3.30
2018-09-02T04:15:10.290Z,3.20
2018-09-02T04:16:10.267Z,3.70
2018-09-02T04:17:10.281Z,3.70
2018-09-02T04:18:10.293Z,3.30
2018-09-02T04:19:10.305Z,3.30
2018-09-02T04:20:10.320Z,3.40
2018-09-02T04:21:10.329Z,3.40
2018-09-02T04:22:10.344Z,3.60
2018-09-02T04:23:10.358Z,3.10
2018-09-02T04:24:10.373Z,3.20
2018-09-02T04:25:10.384Z,3.70
2018-09-02T04:26:10.396Z,3.50
2018-09-02T04:27:10.417Z,3.50
2018-09-02T04:28:10.424Z,3.30
2018-09-02T04:29:10.436Z,3.70
2018-09-02T04:30:10.450Z,3.80
2018-09-02T04:31:10.499Z,3.50
2018-09-02T04:32:10.482Z,3.60
2018-09-02T04:33:10.493Z,3.10
2018-09-02T04:34:10.504Z,2.80
2018-09-02T04:35:10.519Z,2.80
2018-09-02T04:36:10.559Z,3.00
2018-09-02T04:37:10.553Z,2.70
2018-09-02T04:38:10.560Z,2.70
2018-09-02T04:39:10.578Z,3.10
2018-09-02T04:40:10.584Z,3.10
2018-09-02T04:41:10.602Z,3.30
2018-09-02T04:42:10.608Z,3.00
2018-09-02T04:43:10.624Z,3.90
2018-09-02T04:44:10.641Z,3.70
2018-09-02T04:45:10.788Z,3.40
2018-09-02T04:46:10.666Z,3.00
2018-09-02T04:47:10.683Z,3.30
2018-09-02T04:48:10.689Z,3.10
2018-09-02T04:49:10.703Z,3.00
2018-09-02T04:50:10.717Z,3.20
2018-09-02T04:51:10.737Z,3.30
2018-09-02T04:52:10.744Z,3.00
2018-09-02T04:53:10.757Z,2.60
2018-09-02T04:54:10.805Z,3.40
2018-09-02T04:55:10.794Z,3.10
2018-09-02T04:56:10.795Z,3.00
2018-09-02T04:57:10.816Z,2.80
2018-09-02T04:58:10.823Z,2.60
2018-09-02T04:59:10.842Z,3.00
2018-09-02T05:00:10.899Z,2.50
2018-09-02T05:01:10.878Z,2.80
2018-09-02T05:02:10.876Z,2.80
2018-09-02T05:03:10.897Z,3.00
2018-09-02T05:04:10.904Z,2.90
2018-09-02T05:05:10.922Z,2.70
2018-09-02T05:06:10.931Z,2.70
2018-09-02T05:07:10.946Z,2.90
2018-09-02T05:08:10.956Z,2.40
2018-09-02T05:09:10.969Z,2.60
2018-09-02T05:10:10.988Z,2.60
2018-09-02T05:11:10.995Z,2.80
2018-09-02T05:12:11.012Z,2.70
2018-09-02T05:13:11.022Z,2.70
2018-09-02T05:14:11.071Z,3.30
2018-09-02T05:15:11.052Z,3.10
2018-09-02T05:16:11.069Z,2.80
2018-09-02T05:17:11.074Z,2.90
2018-09-02T05:18:11.088Z,3.00
2018-09-02T05:19:11.124Z,2.40
2018-09-02T05:20:11.116Z,3.10
2018-09-02T05:21:11.130Z,2.80
2018-09-02T05:22:11.147Z,2.60
2018-09-02T05:23:11.156Z,2.90
2018-09-02T05:24:11.170Z,3.10
2018-09-02T05:25:11.182Z,3.10
2018-09-02T05:26:11.194Z,3.30
2018-09-02T05:27:11.221Z,3.60
2018-09-02T05:28:11.222Z,3.60
2018-09-02T05:29:11.242Z,3.10
2018-09-02T05:30:11.248Z,3.80
2018-09-02T05:31:11.269Z,3.70
2018-09-02T05:32:11.274Z,4.10
2018-09-02T05:33:11.294Z,4.30
2018-09-02T05:34:11.300Z,3.90
2018-09-02T05:35:11.317Z,4.50
2018-09-02T05:36:11.327Z,4.50
2018-09-02T05:37:11.347Z,4.20
2018-09-02T05:38:11.352Z,5.20
2018-09-02T05:39:11.365Z,4.10
2018-09-02T05:40:11.380Z,4.50
2018-09-02T05:41:11.401Z,4.40
2018-09-02T05:42:11.404Z,5.00
2018-09-02T05:43:11.427Z,5.10
2018-09-02T05:44:11.433Z,4.20
2018-09-02T05:45:11.451Z,4.60
2018-09-02T05:46:11.456Z,4.20
2018-09-02T05:47:11.475Z,4.00
2018-09-02T05:48:11.485Z,4.00
2018-09-02T05:49:11.503Z,4.10
2018-09-02T05:50:11.509Z,4.40
2018-09-02T05:51:11.529Z,4.50
2018-09-02T05:52:11.536Z,4.40
2018-09-02T05:53:11.558Z,4.00
2018-09-02T05:54:11.563Z,4.20
2018-09-02T05:55:11.577Z,4.10
2018-09-02T05:56:11.589Z,4.40
2018-09-02T05:57:11.602Z,4.10
2018-09-02T05:58:11.617Z,3.60
2018-09-02T05:59:11.636Z,4.00
2018-09-02T06:00:11.642Z,3.60
2018-09-02T06:01:11.666Z,3.80
2018-09-02T06:02:11.668Z,3.30
2018-09-02T06:03:11.684Z,3.70
2018-09-02T06:04:11.697Z,3.60
2018-09-02T06:05:11.716Z,4.10
2018-09-02T06:06:11.723Z,3.80
2018-09-02T06:07:11.742Z,3.50
2018-09-02T06:08:11.749Z,4.10
2018-09-02T06:09:11.761Z,3.80
2018-09-02T06:10:11.774Z,4.00
2018-09-02T06:11:11.797Z,4.30
2018-09-02T06:12:11.804Z,3.60
2018-09-02T06:13:11.824Z,3.80
2018-09-02T06:14:11.826Z,3.70
2018-09-02T06:15:11.849Z,3.90
2018-09-02T06:16:11.853Z,3.60
2018-09-02T06:17:11.923Z,3.90
2018-09-02T06:18:11.879Z,3.60
2018-09-02T06:19:11.900Z,4.00
2018-09-02T06:20:11.905Z,3.80
2018-09-02T06:21:11.917Z,4.20
2018-09-02T06:22:11.933Z,4.30
2018-09-02T06:23:11.952Z,4.20
2018-09-02T06:24:11.962Z,4.00
2018-09-02T06:25:11.981Z,4.30
2018-09-02T06:26:11.983Z,3.90
2018-09-02T06:27:12.007Z,4.00
2018-09-02T06:28:12.008Z,3.60
2018-09-02T06:29:12.030Z,3.70
2018-09-02T06:30:12.163Z,4.30
2018-09-02T06:31:12.059Z,3.60
2018-09-02T06:32:12.066Z,4.00
2018-09-02T06:33:12.080Z,4.10
2018-09-02T06:34:12.088Z,3.90
2018-09-02T06:35:12.107Z,3.90
2018-09-02T06:36:12.119Z,4.20
2018-09-02T06:37:12.132Z,4.10
2018-09-02T06:38:12.143Z,4.10
2018-09-02T06:39:12.155Z,4.60
2018-09-02T06:40:12.169Z,4.10
2018-09-02T06:41:12.179Z,4.10
2018-09-02T06:42:12.194Z,4.10
2018-09-02T06:43:12.214Z,4.10
2018-09-02T06:44:12.220Z,4.30
2018-09-02T06:45:12.235Z,4.40
2018-09-02T06:46:12.245Z,4.50
2018-09-02T06:47:12.260Z,4.30
2018-09-02T06:48:12.273Z,3.90
2018-09-02T06:49:12.283Z,4.10
2018-09-02T06:50:12.296Z,3.50
2018-09-02T06:51:12.312Z,3.70
2018-09-02T06:52:12.326Z,3.80
2018-09-02T06:53:12.335Z,3.60
2018-09-02T06:54:12.348Z,3.30
2018-09-02T06:55:12.362Z,3.30
2018-09-02T06:56:12.392Z,3.60
2018-09-02T06:57:12.391Z,3.60
2018-09-02T06:58:12.400Z,3.40
2018-09-02T06:59:12.415Z,3.80
2018-09-02T07:00:12.430Z,5.60
2018-09-02T07:01:12.443Z,4.80
2018-09-02T07:02:12.462Z,5.10
2018-09-02T07:03:12.478Z,5.10
2018-09-02T07:04:12.479Z,4.30
2018-09-02T07:05:12.502Z,3.90
2018-09-02T07:06:12.507Z,4.20
2018-09-02T07:07:12.571Z,4.00
2018-09-02T07:08:12.535Z,3.10
2018-09-02T07:09:12.547Z,3.30
2018-09-02T07:10:12.560Z,3.30
2018-09-02T07:11:12.573Z,4.00
2018-09-02T07:12:12.587Z,4.50
2018-09-02T07:13:12.597Z,4.50
2018-09-02T07:14:12.628Z,4.50
2018-09-02T07:15:12.636Z,5.00
2018-09-02T07:16:12.640Z,4.40
2018-09-02T07:17:12.668Z,4.70
2018-09-02T07:18:12.663Z,4.60
2018-09-02T07:19:12.678Z,4.50
2018-09-02T07:20:12.871Z,5.00
2018-09-02T07:21:12.705Z,4.90
2018-09-02T07:22:12.716Z,6.90
2018-09-02T07:23:12.736Z,14.80
2018-09-02T07:24:12.742Z,6.20
2018-09-02T07:25:12.855Z,5.30
2018-09-02T07:26:12.769Z,5.00
2018-09-02T07:27:12.782Z,5.20
2018-09-02T07:28:12.793Z,4.10
2018-09-02T07:29:12.806Z,4.30
2018-09-02T07:30:12.820Z,4.10
2018-09-02T07:31:12.833Z,4.40
2018-09-02T07:32:12.846Z,5.30
2018-09-02T07:33:12.858Z,7.60
2018-09-02T07:34:12.879Z,6.10
2018-09-02T07:35:12.887Z,5.50
2018-09-02T07:36:12.913Z,5.70
2018-09-02T07:37:12.910Z,4.50
2018-09-02T07:38:12.924Z,5.00
2018-09-02T07:39:12.942Z,5.20
2018-09-02T07:40:12.953Z,5.90
2018-09-02T07:41:12.961Z,5.20
2018-09-02T07:42:12.977Z,5.70
2018-09-02T07:43:12.989Z,4.60
2018-09-02T07:44:13.073Z,5.20
2018-09-02T07:45:13.016Z,4.20
2018-09-02T07:46:13.028Z,4.40
2018-09-02T07:47:13.039Z,4.60
2018-09-02T07:48:13.053Z,5.00
2018-09-02T07:49:13.068Z,5.90
2018-09-02T07:50:13.080Z,8.90
2018-09-02T07:51:13.092Z,5.60
2018-09-02T07:52:13.115Z,5.50
2018-09-02T07:53:13.117Z,5.90
2018-09-02T07:54:13.136Z,5.70
2018-09-02T07:55:13.144Z,5.10
2018-09-02T07:56:13.159Z,5.10
2018-09-02T07:57:13.170Z,4.80
2018-09-02T07:58:13.181Z,4.10
2018-09-02T07:59:13.196Z,3.90
2018-09-02T08:00:13.211Z,4.40
2018-09-02T08:01:13.228Z,4.00
2018-09-02T08:02:13.234Z,3.60
2018-09-02T08:03:13.247Z,4.10
2018-09-02T08:04:13.261Z,3.90
2018-09-02T08:05:13.273Z,4.40
2018-09-02T08:06:13.288Z,4.30
2018-09-02T08:07:13.298Z,4.20
2018-09-02T08:08:13.315Z,4.70
2018-09-02T08:09:13.324Z,4.90
2018-09-02T08:10:13.339Z,5.70
2018-09-02T08:11:13.348Z,5.80
2018-09-02T08:12:13.397Z,5.10
2018-09-02T08:13:13.378Z,4.90
2018-09-02T08:14:13.390Z,5.00
2018-09-02T08:15:13.402Z,5.50
2018-09-02T08:16:13.415Z,6.30
2018-09-02T08:17:13.427Z,6.10
2018-09-02T08:18:13.438Z,8.00
2018-09-02T08:19:13.451Z,4.70
2018-09-02T08:20:13.464Z,4.30
2018-09-02T08:21:13.484Z,4.10
2018-09-02T08:22:13.490Z,3.90
2018-09-02T08:23:13.502Z,4.40
2018-09-02T08:24:13.518Z,4.00
2018-09-02T08:25:13.528Z,3.90
2018-09-02T08:26:13.540Z,3.90
2018-09-02T08:27:13.555Z,3.40
2018-09-02T08:28:13.567Z,3.40
2018-09-02T08:29:13.578Z,2.90
2018-09-02T08:30:13.592Z,2.50
2018-09-02T08:31:13.605Z,3.10
2018-09-02T08:32:13.616Z,2.80
2018-09-02T08:33:13.631Z,2.80
2018-09-02T08:34:13.643Z,2.40
2018-09-02T08:35:13.659Z,2.60
2018-09-02T08:36:13.668Z,2.30
2018-09-02T08:37:13.681Z,2.70
2018-09-02T08:38:13.692Z,2.60
2018-09-02T08:39:13.769Z,2.50
2018-09-02T08:40:13.719Z,2.50
2018-09-02T08:41:13.730Z,2.70
2018-09-02T08:42:13.744Z,2.20
2018-09-02T08:43:13.761Z,2.10
2018-09-02T08:44:13.845Z,1.70
2018-09-02T08:45:13.788Z,1.80
2018-09-02T08:46:13.797Z,2.00
2018-09-02T08:47:13.808Z,2.20
2018-09-02T08:48:13.833Z,1.70
2018-09-02T08:49:13.839Z,2.10
2018-09-02T08:50:13.851Z,1.80
2018-09-02T08:51:13.862Z,1.70
2018-09-02T08:52:13.876Z,2.20
2018-09-02T08:53:13.886Z,2.00
2018-09-02T08:54:13.901Z,2.10
2018-09-02T08:55:13.913Z,1.80
2018-09-02T08:56:13.927Z,1.80
2018-09-02T08:57:13.941Z,1.90
2018-09-02T08:58:13.952Z,1.90
2018-09-02T08:59:14.015Z,1.90
2018-09-02T09:00:13.979Z,2.00
2018-09-02T09:01:13.990Z,2.30
2018-09-02T09:02:14.005Z,2.30
2018-09-02T09:03:14.017Z,2.00
2018-09-02T09:04:14.031Z,2.00
2018-09-02T09:05:14.042Z,2.30
2018-09-02T09:06:14.056Z,2.50
2018-09-02T09:07:14.069Z,2.30
2018-09-02T09:08:14.445Z,2.00
2018-09-02T09:09:14.253Z,2.20
2018-09-02T09:10:14.110Z,2.50
2018-09-02T09:11:14.120Z,2.40
2018-09-02T09:12:14.135Z,2.20
2018-09-02T09:13:14.146Z,2.40
2018-09-02T09:14:14.204Z,2.60
2018-09-02T09:15:14.175Z,2.30
2018-09-02T09:16:14.191Z,2.00
2018-09-02T09:17:14.265Z,2.30
2018-09-02T09:18:14.213Z,2.40
2018-09-02T09:19:14.230Z,2.30
2018-09-02T09:20:14.241Z,2.10
2018-09-02T09:21:14.254Z,2.30
2018-09-02T09:22:14.265Z,2.00
2018-09-02T09:23:14.284Z,2.10
2018-09-02T09:24:14.295Z,2.40
2018-09-02T09:25:14.436Z,2.10
2018-09-02T09:26:14.317Z,2.40
2018-09-02T09:27:14.335Z,2.40
2018-09-02T09:28:14.347Z,2.10
2018-09-02T09:29:14.361Z,2.40
2018-09-02T09:30:14.373Z,2.30
2018-09-02T09:31:14.389Z,2.10
2018-09-02T09:32:14.427Z,2.30
2018-09-02T09:33:14.411Z,2.60
2018-09-02T09:34:14.427Z,2.60
2018-09-02T09:35:14.441Z,2.40
2018-09-02T09:36:14.455Z,2.50
2018-09-02T09:37:14.468Z,2.20
2018-09-02T09:38:14.482Z,2.30
2018-09-02T09:39:14.496Z,2.00
2018-09-02T09:40:14.510Z,2.70
2018-09-02T09:41:14.524Z,2.40
2018-09-02T09:42:14.535Z,2.60
2018-09-02T09:43:14.551Z,2.70
2018-09-02T09:44:14.563Z,2.40
2018-09-02T09:45:14.576Z,2.10
2018-09-02T09:46:14.593Z,2.20
2018-09-02T09:47:14.605Z,2.20
2018-09-02T09:48:14.619Z,2.60
2018-09-02T09:49:14.631Z,2.30
2018-09-02T09:50:14.646Z,2.20
2018-09-02T09:51:14.662Z,2.30
2018-09-02T09:52:14.674Z,2.50
2018-09-02T09:53:14.686Z,1.90
2018-09-02T09:54:14.700Z,2.20
2018-09-02T09:55:14.715Z,2.00
2018-09-02T09:56:14.727Z,2.10
2018-09-02T09:57:14.741Z,2.20
2018-09-02T09:58:14.756Z,2.00
2018-09-02T09:59:14.818Z,2.10
2018-09-02T10:00:14.786Z,2.20
2018-09-02T10:01:14.794Z,2.10
2018-09-02T10:02:14.813Z,2.20
2018-09-02T10:03:14.825Z,2.40
2018-09-02T10:04:14.838Z,2.20
2018-09-02T10:05:14.851Z,2.10
2018-09-02T10:06:14.862Z,2.50
2018-09-02T10:07:14.877Z,2.20
2018-09-02T10:08:14.891Z,2.20
2018-09-02T10:09:14.902Z,2.20
2018-09-02T10:10:14.925Z,2.00
2018-09-02T10:11:14.932Z,2.00
2018-09-02T10:12:14.948Z,1.70
2018-09-02T10:13:14.959Z,2.00
2018-09-02T10:14:14.971Z,1.90
2018-09-02T10:15:14.997Z,2.20
2018-09-02T10:16:15.003Z,2.20
2018-09-02T10:17:15.041Z,1.90
2018-09-02T10:18:15.133Z,1.80
2018-09-02T10:19:15.043Z,1.90
2018-09-02T10:20:15.058Z,1.80
2018-09-02T10:21:15.071Z,1.90
2018-09-02T10:22:15.085Z,2.00
2018-09-02T10:23:15.102Z,2.10
2018-09-02T10:24:15.114Z,2.20
2018-09-02T10:25:15.129Z,1.50
2018-09-02T10:26:15.145Z,1.40
2018-09-02T10:27:15.185Z,1.50
2018-09-02T10:28:15.171Z,2.10
2018-09-02T10:29:15.185Z,1.90
2018-09-02T10:30:15.203Z,1.70
2018-09-02T10:31:15.218Z,1.80
2018-09-02T10:32:15.232Z,2.10
2018-09-02T10:33:15.289Z,1.70
2018-09-02T10:34:15.261Z,1.70
2018-09-02T10:35:15.277Z,1.90
2018-09-02T10:36:15.290Z,1.80
2018-09-02T10:37:15.304Z,1.60
2018-09-02T10:38:15.321Z,1.60
2018-09-02T10:39:15.336Z,1.60
2018-09-02T10:40:15.353Z,1.50
2018-09-02T10:41:15.566Z,1.60
2018-09-02T10:42:15.385Z,1.20
2018-09-02T10:43:15.399Z,1.40
2018-09-02T10:44:15.420Z,1.80
2018-09-02T10:45:15.430Z,1.40
2018-09-02T10:46:15.444Z,1.40
2018-09-02T10:47:15.464Z,1.60
2018-09-02T10:48:15.478Z,1.60
2018-09-02T10:49:15.494Z,1.30
2018-09-02T10:50:15.612Z,1.70
2018-09-02T10:51:15.525Z,1.70
2018-09-02T10:52:15.544Z,1.80
2018-09-02T10:53:15.556Z,1.60
2018-09-02T10:54:15.573Z,1.70
2018-09-02T10:55:15.587Z,1.40
2018-09-02T10:56:15.649Z,1.60
2018-09-02T10:57:15.624Z,1.50
2018-09-02T10:58:15.638Z,2.00
2018-09-02T10:59:15.653Z,1.70
2018-09-02T11:00:15.675Z,1.80
2018-09-02T11:01:15.685Z,2.00
2018-09-02T11:02:15.702Z,1.60
2018-09-02T11:03:15.719Z,1.60
2018-09-02T11:04:15.734Z,1.70
2018-09-02T11:05:15.748Z,1.50
2018-09-02T11:06:15.766Z,1.80
2018-09-02T11:07:15.784Z,1.50
2018-09-02T11:08:15.801Z,1.70
2018-09-02T11:09:15.817Z,1.70
2018-09-02T11:10:15.833Z,1.40
2018-09-02T11:11:15.851Z,1.70
2018-09-02T11:12:15.866Z,1.70
2018-09-02T11:13:16.007Z,1.70
2018-09-02T11:14:15.916Z,1.50
2018-09-02T11:15:15.919Z,1.40
2018-09-02T11:16:15.946Z,1.60
2018-09-02T11:17:15.950Z,1.70
2018-09-02T11:18:15.975Z,1.70
2018-09-02T11:19:15.986Z,1.60
2018-09-02T11:20:16.021Z,1.50
2018-09-02T11:21:16.020Z,1.60
2018-09-02T11:22:16.059Z,1.80
2018-09-02T11:23:16.054Z,1.40
2018-09-02T11:24:16.090Z,1.40
2018-09-02T11:25:16.087Z,1.50
2018-09-02T11:26:16.107Z,1.40
2018-09-02T11:27:16.122Z,1.40
2018-09-02T11:28:16.138Z,1.60
2018-09-02T11:29:16.156Z,1.70
2018-09-02T11:30:16.175Z,1.70
2018-09-02T11:31:16.195Z,1.50
2018-09-02T11:32:16.208Z,1.90
2018-09-02T11:33:16.227Z,1.70
2018-09-02T11:34:16.246Z,1.50
2018-09-02T11:35:16.259Z,1.60
2018-09-02T11:36:16.280Z,1.70
2018-09-02T11:37:16.293Z,1.50
2018-09-02T11:38:16.310Z,1.60
2018-09-02T11:39:16.427Z,1.70
2018-09-02T11:40:16.417Z,1.40
2018-09-02T11:41:16.365Z,1.90
2018-09-02T11:42:16.379Z,1.70
2018-09-02T11:43:16.412Z,1.50
2018-09-02T11:44:16.414Z,1.50
2018-09-02T11:45:16.435Z,1.60
2018-09-02T11:46:16.455Z,1.70
2018-09-02T11:47:16.468Z,1.50
2018-09-02T11:48:16.489Z,1.60
2018-09-02T11:49:16.501Z,1.60
2018-09-02T11:50:16.519Z,1.90
2018-09-02T11:51:16.537Z,1.50
2018-09-02T11:52:16.562Z,1.70
2018-09-02T11:53:16.570Z,1.50
2018-09-02T11:54:16.588Z,1.50
2018-09-02T11:55:16.606Z,1.40
2018-09-02T11:56:16.627Z,1.50
2018-09-02T11:57:16.644Z,1.60
2018-09-02T11:58:16.659Z,1.60
2018-09-02T11:59:16.679Z,1.70
2018-09-02T12:00:16.698Z,1.50
2018-09-02T12:01:16.711Z,1.70
2018-09-02T12:02:16.730Z,1.60
2018-09-02T12:03:16.749Z,1.50
2018-09-02T12:04:16.769Z,1.40
2018-09-02T12:05:16.783Z,1.50
2018-09-02T12:06:16.804Z,1.50
2018-09-02T12:07:16.819Z,1.30
2018-09-02T12:08:16.842Z,1.70
2018-09-02T12:09:16.857Z,1.50
2018-09-02T12:10:16.881Z,1.40
2018-09-02T12:11:16.893Z,1.50
2018-09-02T12:12:16.914Z,1.50
2018-09-02T12:13:16.928Z,1.50
2018-09-02T12:14:16.951Z,1.40
2018-09-02T12:15:16.965Z,1.60
2018-09-02T12:16:16.984Z,1.40
2018-09-02T12:17:17.000Z,1.40
2018-09-02T12:18:17.019Z,1.80
2018-09-02T12:19:17.038Z,1.40
2018-09-02T12:20:17.060Z,1.50
2018-09-02T12:21:17.076Z,1.30
2018-09-02T12:22:17.092Z,1.40
2018-09-02T12:23:17.115Z,1.40
2018-09-02T12:24:17.132Z,1.60
2018-09-02T12:25:17.152Z,1.60
2018-09-02T12:26:17.167Z,1.70
2018-09-02T12:27:17.188Z,1.40
2018-09-02T12:28:17.208Z,1.40
2018-09-02T12:29:17.225Z,1.30
2018-09-02T12:30:17.243Z,1.40
2018-09-02T12:31:17.261Z,1.60
2018-09-02T12:32:17.281Z,1.30
2018-09-02T12:33:17.298Z,1.40
2018-09-02T12:34:17.320Z,1.60
2018-09-02T12:35:17.339Z,1.40
2018-09-02T12:36:17.356Z,1.40
2018-09-02T12:37:17.373Z,1.20
2018-09-02T12:38:17.392Z,1.20
2018-09-02T12:39:17.410Z,1.40
2018-09-02T12:40:17.429Z,1.50
2018-09-02T12:41:17.446Z,1.40
2018-09-02T12:42:17.521Z,1.50
2018-09-02T12:43:17.484Z,1.30
2018-09-02T12:44:17.506Z,1.40
2018-09-02T12:45:17.520Z,1.20
2018-09-02T12:46:17.545Z,1.10
2018-09-02T12:47:17.562Z,1.20
2018-09-02T12:48:17.712Z,1.50
2018-09-02T12:49:17.601Z,1.50
2018-09-02T12:50:17.617Z,1.10
2018-09-02T12:51:17.641Z,1.20
2018-09-02T12:52:17.658Z,1.40
2018-09-02T12:53:17.676Z,1.50
2018-09-02T12:54:17.695Z,1.10
2018-09-02T12:55:18.145Z,1.00
2018-09-02T12:56:17.735Z,1.50
2018-09-02T12:57:17.755Z,1.10
2018-09-02T12:58:17.777Z,1.20
2018-09-02T12:59:17.794Z,1.50
2018-09-02T13:00:17.811Z,1.40
2018-09-02T13:01:17.897Z,1.30
2018-09-02T13:02:17.849Z,1.30
2018-09-02T13:03:17.875Z,1.40
2018-09-02T13:04:17.890Z,1.30
2018-09-02T13:05:17.908Z,1.20
2018-09-02T13:06:18.012Z,1.30
2018-09-02T13:07:17.946Z,1.30
2018-09-02T13:08:17.970Z,1.30
2018-09-02T13:09:18.002Z,1.10
2018-09-02T13:10:18.005Z,1.20
2018-09-02T13:11:18.026Z,1.00
2018-09-02T13:12:18.049Z,1.40
2018-09-02T13:13:18.065Z,1.10
2018-09-02T13:14:18.083Z,1.20
2018-09-02T13:15:18.163Z,1.10
2018-09-02T13:16:18.125Z,1.10
2018-09-02T13:17:18.145Z,1.00
2018-09-02T13:18:18.161Z,1.00